Amfitriti — SVCP5 — position and weather

sailwx.info

Track history (hours):
 
Tides and Currents Weather Stations Pressure Air Temp Water Temp Dewpoint Dewpoint Depression Visibility Wind Speed Wind Dir Waves Ship Positions

Amfitriti

Last reported at 2018-May-25 13:27 UTC. Time now 2018-Jun-22 18:51 UTC.
Position N 23°10' E 117°54'.
Warning: this ship's position is 28 days out of date.

Length 196 m; draft 11.1 m.

Type: Ship. MMSI: 241508000.

Date/timePositionNaut miles runAvg speedWind from/ knotsBaromVisibWave heightAir tempDewpointWater temp
2018-May-25 13:27N 23°10' E 117°54'610.9
2018-May-25 12:56N 23°14' E 117°58'510.7
2018-May-25 12:30N 23°18' E 118°02'610.5
2018-May-25 11:57N 23°22' E 118°06'510.3
2018-May-25 11:29N 23°26' E 118°10'510.1
2018-May-25 11:00N 23°29' E 118°13'510.0
2018-May-25 10:30N 23°33' E 118°17'510.1
2018-May-25 10:00N 23°37' E 118°20'510.2
2018-May-25 09:29N 23°41' E 118°24'510.2
2018-May-25 09:00N 23°44' E 118°28'510.2
2018-May-25 08:30N 23°48' E 118°32'510.3
2018-May-25 08:00N 23°52' E 118°36'5 9.4
2018-May-25 07:30N 23°55' E 118°38'510.3
2018-May-25 07:00N 23°59' E 118°43'510.7
2018-May-25 06:30N 24°02' E 118°48'510.6
2018-May-25 06:00N 24°07' E 118°50'510.0
2018-May-25 05:30N 24°11' E 118°53'510.2
2018-May-25 05:00N 24°12' E 118°59'611.3
2018-May-25 04:30N 24°16' E 119°03'612.4
2018-May-25 04:00N 24°20' E 119°08'1712.9
2018-May-25 02:40N 24°33' E 119°21'212.3
2018-May-25 02:30N 24°34' E 119°22'  
2018-May-22 18:29N 31°10' E 122°25'0 0.4
2018-May-22 17:19N 31°10' E 122°26'1 4.3
2018-May-22 17:00N 31°09' E 122°25'3 4.8
2018-May-22 16:24N 31°07' E 122°23'3 6.6
2018-May-22 15:55N 31°06' E 122°19'4 9.2
2018-May-22 15:29N 31°08' E 122°15'611.4
2018-May-22 14:55N 31°12' E 122°09'512.4
2018-May-22 14:30N 31°14' E 122°04'713.1
2018-May-22 14:00N 31°15' E 121°56'612.8
2018-May-22 13:30N 31°17' E 121°49'1610.9
2018-May-22 12:04N 31°24' E 121°33'1 9.7
2018-May-22 12:00N 31°25' E 121°32'4 8.2
2018-May-22 11:29N 31°27' E 121°28'511.0
2018-May-22 11:00N 31°31' E 121°24'510.9
2018-May-22 10:30N 31°34' E 121°18'611.2
2018-May-22 10:00N 31°38' E 121°14'611.7
2018-May-22 09:30N 31°42' E 121°09'611.4
2018-May-22 09:00N 31°46' E 121°04'  
2018-May-17 05:05N 31°47' E 120°59'3 7.9
2018-May-17 04:43N 31°46' E 121°02'1 0.1
2018-May-16 19:10N 31°47' E 121°03'0 0.0
2018-May-16 18:52N 31°47' E 121°03'0 0.0
2018-May-16 16:59N 31°47' E 121°03'0 0.1
2018-May-16 16:28N 31°47' E 121°03'0 0.1
2018-May-16 13:59N 31°47' E 121°04'0 0.1
2018-May-16 12:41N 31°47' E 121°04'0 0.2
2018-May-16 12:23N 31°47' E 121°04'0 0.0
2018-May-16 11:47N 31°47' E 121°04'0 0.0
2018-May-16 08:52N 31°47' E 121°04'0 0.1
2018-May-16 08:22N 31°47' E 121°04'0 0.3
2018-May-16 07:59N 31°47' E 121°04'0 0.1
2018-May-16 07:04N 31°47' E 121°03'0 0.1
2018-May-16 03:58N 31°47' E 121°04'0 0.0
2018-May-15 17:29N 31°47' E 121°03'0 0.0
2018-May-15 15:46N 31°47' E 121°03'0 0.7
2018-May-15 15:29N 31°47' E 121°04'  
Track history (hours):
 
Tides and Currents Weather Stations Pressure Air Temp Water Temp Dewpoint Dewpoint Depression Visibility Wind Speed Wind Dir Waves Ship Positions

Amfitriti

Last reported at 2018-May-25 13:27 UTC. Time now 2018-Jun-22 18:51 UTC.
Position N 23°10' E 117°54'.
Warning: this ship's position is 28 days out of date.

Length 196 m; draft 11.1 m.

Type: Ship. MMSI: 241508000.

Date/timePositionNaut miles runAvg speedWind from/ knotsBaromVisibWave heightAir tempDewpointWater temp
2018-May-25 13:27N 23°10' E 117°54'610.9
2018-May-25 12:56N 23°14' E 117°58'510.7
2018-May-25 12:30N 23°18' E 118°02'610.5
2018-May-25 11:57N 23°22' E 118°06'510.3
2018-May-25 11:29N 23°26' E 118°10'510.1
2018-May-25 11:00N 23°29' E 118°13'510.0
2018-May-25 10:30N 23°33' E 118°17'510.1
2018-May-25 10:00N 23°37' E 118°20'510.2
2018-May-25 09:29N 23°41' E 118°24'510.2
2018-May-25 09:00N 23°44' E 118°28'510.2
2018-May-25 08:30N 23°48' E 118°32'510.3
2018-May-25 08:00N 23°52' E 118°36'5 9.4
2018-May-25 07:30N 23°55' E 118°38'510.3
2018-May-25 07:00N 23°59' E 118°43'510.7
2018-May-25 06:30N 24°02' E 118°48'510.6
2018-May-25 06:00N 24°07' E 118°50'510.0
2018-May-25 05:30N 24°11' E 118°53'510.2
2018-May-25 05:00N 24°12' E 118°59'611.3
2018-May-25 04:30N 24°16' E 119°03'612.4
2018-May-25 04:00N 24°20' E 119°08'1712.9
2018-May-25 02:40N 24°33' E 119°21'212.3
2018-May-25 02:30N 24°34' E 119°22'  
2018-May-22 18:29N 31°10' E 122°25'0 0.4
2018-May-22 17:19N 31°10' E 122°26'1 4.3
2018-May-22 17:00N 31°09' E 122°25'3 4.8
2018-May-22 16:24N 31°07' E 122°23'3 6.6
2018-May-22 15:55N 31°06' E 122°19'4 9.2
2018-May-22 15:29N 31°08' E 122°15'611.4
2018-May-22 14:55N 31°12' E 122°09'512.4
2018-May-22 14:30N 31°14' E 122°04'713.1
2018-May-22 14:00N 31°15' E 121°56'612.8
2018-May-22 13:30N 31°17' E 121°49'1610.9
2018-May-22 12:04N 31°24' E 121°33'1 9.7
2018-May-22 12:00N 31°25' E 121°32'4 8.2
2018-May-22 11:29N 31°27' E 121°28'511.0
2018-May-22 11:00N 31°31' E 121°24'510.9
2018-May-22 10:30N 31°34' E 121°18'611.2
2018-May-22 10:00N 31°38' E 121°14'611.7
2018-May-22 09:30N 31°42' E 121°09'611.4
2018-May-22 09:00N 31°46' E 121°04'  
2018-May-17 05:05N 31°47' E 120°59'3 7.9
2018-May-17 04:43N 31°46' E 121°02'1 0.1
2018-May-16 19:10N 31°47' E 121°03'0 0.0
2018-May-16 18:52N 31°47' E 121°03'0 0.0
2018-May-16 16:59N 31°47' E 121°03'0 0.1
2018-May-16 16:28N 31°47' E 121°03'0 0.1
2018-May-16 13:59N 31°47' E 121°04'0 0.1
2018-May-16 12:41N 31°47' E 121°04'0 0.2
2018-May-16 12:23N 31°47' E 121°04'0 0.0
2018-May-16 11:47N 31°47' E 121°04'0 0.0
2018-May-16 08:52N 31°47' E 121°04'0 0.1
2018-May-16 08:22N 31°47' E 121°04'0 0.3
2018-May-16 07:59N 31°47' E 121°04'0 0.1
2018-May-16 07:04N 31°47' E 121°03'0 0.1
2018-May-16 03:58N 31°47' E 121°04'0 0.0
2018-May-15 17:29N 31°47' E 121°03'0 0.0
2018-May-15 15:46N 31°47' E 121°03'0 0.7
2018-May-15 15:29N 31°47' E 121°04'  

Dump ship's entire track history